createdAt,value
2017-07-27T00:01:50.018Z,998.06
2017-07-27T00:04:13.981Z,998.04
2017-07-27T00:06:37.968Z,998.01
2017-07-27T00:09:03.918Z,998.03
2017-07-27T00:11:27.880Z,998.11
2017-07-27T00:13:51.794Z,998.11
2017-07-27T00:16:15.774Z,998.14
2017-07-27T00:18:47.599Z,998.16
2017-07-27T00:21:11.580Z,998.06
2017-07-27T00:23:35.539Z,998.08
2017-07-27T00:25:59.464Z,998.16
2017-07-27T00:28:22.657Z,998.21
2017-07-27T00:30:46.611Z,998.19
2017-07-27T00:33:19.642Z,998.2
2017-07-27T00:35:43.580Z,998.18
2017-07-27T00:39:43.709Z,998.16
2017-07-27T00:42:07.778Z,998.14
2017-07-27T00:44:31.762Z,998.06
2017-07-27T00:46:55.714Z,998.09
2017-07-27T00:49:19.704Z,998.05
2017-07-27T00:51:43.703Z,998.09
2017-07-27T00:54:07.661Z,998.04
2017-07-27T00:58:07.843Z,998.01
2017-07-27T01:00:18.202Z,998
2017-07-27T01:02:29.584Z,998.05
2017-07-27T01:04:53.574Z,998.06
2017-07-27T01:07:17.520Z,998.07
2017-07-27T01:09:41.475Z,998.11
2017-07-27T01:12:05.421Z,998.13
2017-07-27T01:14:29.334Z,998.12
2017-07-27T01:16:53.305Z,998.13
2017-07-27T01:19:17.250Z,998.15
2017-07-27T01:21:47.952Z,998.19
2017-07-27T01:24:11.868Z,998.15
2017-07-27T01:26:35.831Z,998.09
2017-07-27T01:29:15.452Z,998.08
2017-07-27T01:31:39.412Z,998.05
2017-07-27T01:34:03.408Z,998.02
2017-07-27T01:36:27.414Z,997.97
2017-07-27T01:38:51.337Z,997.96
2017-07-27T01:42:51.486Z,997.9
2017-07-27T01:45:15.462Z,997.9
2017-07-27T01:47:39.381Z,997.96
2017-07-27T01:50:03.372Z,997.95
2017-07-27T01:52:04.755Z,997.96
2017-07-27T01:54:28.698Z,997.91
2017-07-27T01:56:52.669Z,997.93
2017-07-27T01:59:16.645Z,997.9
2017-07-27T02:01:42.657Z,997.87
2017-07-27T02:05:43.318Z,997.8
2017-07-27T02:08:07.390Z,997.76
2017-07-27T02:10:31.370Z,997.74
2017-07-27T02:13:03.209Z,997.76
2017-07-27T02:17:03.454Z,997.82
2017-07-27T02:19:27.430Z,997.77
2017-07-27T02:21:29.287Z,997.8
2017-07-27T02:23:53.277Z,997.8
2017-07-27T02:26:17.268Z,997.79
2017-07-27T02:28:41.273Z,997.82
2017-07-27T02:31:05.291Z,997.82
2017-07-27T02:33:20.878Z,997.76
2017-07-27T02:35:44.868Z,997.8
2017-07-27T02:38:08.875Z,997.78
2017-07-27T02:40:33.859Z,997.76
2017-07-27T02:43:12.621Z,997.77
2017-07-27T02:45:36.668Z,997.75
2017-07-27T02:49:37.669Z,997.79
2017-07-27T02:52:01.642Z,997.75
2017-07-27T02:54:25.625Z,997.7
2017-07-27T02:56:49.618Z,997.74
2017-07-27T02:58:56.727Z,997.62
2017-07-27T03:01:20.692Z,997.75
2017-07-27T03:03:44.645Z,997.75
2017-07-27T03:06:00.147Z,997.78
2017-07-27T03:08:24.083Z,997.73
2017-07-27T03:10:47.182Z,997.77
2017-07-27T03:14:38.892Z,997.69
2017-07-27T03:17:02.870Z,997.76
2017-07-27T03:19:26.776Z,997.7
2017-07-27T03:21:50.712Z,997.76
2017-07-27T03:24:22.628Z,997.74
2017-07-27T03:26:46.567Z,997.71
2017-07-27T03:29:10.429Z,997.66
2017-07-27T03:33:02.110Z,997.68
2017-07-27T03:35:26.071Z,997.63
2017-07-27T03:37:49.989Z,997.65
2017-07-27T03:41:41.199Z,997.69
2017-07-27T03:43:48.212Z,997.71
2017-07-27T03:46:12.108Z,997.67
2017-07-27T03:48:27.715Z,997.61
2017-07-27T03:50:51.542Z,997.64
2017-07-27T03:53:15.440Z,997.65
2017-07-27T03:55:45.995Z,997.63
2017-07-27T03:58:09.847Z,997.59
2017-07-27T04:00:34.744Z,997.59
2017-07-27T04:02:58.677Z,997.59
2017-07-27T04:05:22.581Z,997.57
2017-07-27T04:09:22.688Z,997.58
2017-07-27T04:11:46.651Z,997.56
2017-07-27T04:14:10.532Z,997.52
2017-07-27T04:16:34.447Z,997.55
2017-07-27T04:18:58.321Z,997.53
2017-07-27T04:21:13.836Z,997.53
2017-07-27T04:23:37.727Z,997.56
2017-07-27T04:27:54.913Z,997.52
2017-07-27T04:30:10.454Z,997.51
2017-07-27T04:32:34.401Z,997.51
2017-07-27T04:34:36.270Z,997.54
2017-07-27T04:37:00.257Z,997.54
2017-07-27T04:39:24.222Z,997.55
2017-07-27T04:41:48.149Z,997.63
2017-07-27T04:45:48.333Z,997.52
2017-07-27T04:48:12.265Z,997.53
2017-07-27T04:50:36.209Z,997.54
2017-07-27T04:53:00.128Z,997.55
2017-07-27T04:55:24.047Z,997.55
2017-07-27T04:57:39.561Z,997.57
2017-07-27T05:00:03.471Z,997.55
2017-07-27T05:02:44.165Z,997.58
2017-07-27T05:05:08.084Z,997.6
2017-07-27T05:07:31.961Z,997.64
2017-07-27T05:09:47.471Z,997.63
2017-07-27T05:12:11.368Z,997.56
2017-07-27T05:14:35.318Z,997.59
2017-07-27T05:16:37.166Z,997.63
2017-07-27T05:19:01.114Z,997.63
2017-07-27T05:21:16.571Z,997.68
2017-07-27T05:23:40.499Z,997.64
2017-07-27T05:26:04.469Z,997.68
2017-07-27T05:28:05.825Z,997.74
2017-07-27T05:30:29.790Z,997.76
2017-07-27T05:32:53.744Z,997.71
2017-07-27T05:35:17.682Z,997.69
2017-07-27T05:37:41.644Z,997.69
2017-07-27T05:40:05.581Z,997.68
2017-07-27T05:42:29.456Z,997.69
2017-07-27T05:44:53.402Z,997.71
2017-07-27T05:48:53.646Z,997.77
2017-07-27T05:51:09.140Z,997.76
2017-07-27T05:53:33.108Z,997.8
2017-07-27T05:57:24.932Z,997.84
2017-07-27T05:59:48.898Z,997.78
2017-07-27T06:02:12.884Z,997.85
2017-07-27T06:04:28.451Z,997.87
2017-07-27T06:06:38.865Z,997.92
2017-07-27T06:09:02.856Z,997.88
2017-07-27T06:11:35.650Z,997.88
2017-07-27T06:13:59.633Z,997.89
2017-07-27T06:16:23.580Z,997.87
2017-07-27T06:18:47.523Z,997.96
2017-07-27T06:21:11.497Z,997.87
2017-07-27T06:23:35.480Z,997.91
2017-07-27T06:25:59.443Z,997.95
2017-07-27T06:28:23.464Z,997.9
2017-07-27T06:30:47.394Z,997.93
2017-07-27T06:33:11.381Z,997.93
2017-07-27T06:35:35.356Z,997.97
2017-07-27T06:37:59.345Z,998.02
2017-07-27T06:40:23.371Z,997.98
2017-07-27T06:42:47.364Z,998.01
2017-07-27T06:45:12.323Z,998.08
2017-07-27T06:47:36.246Z,998.1
2017-07-27T06:50:00.205Z,998.15
2017-07-27T06:52:01.572Z,998.17
2017-07-27T06:54:25.549Z,998.21
2017-07-27T06:56:49.477Z,998.28
2017-07-27T06:59:13.476Z,998.31
2017-07-27T07:01:37.439Z,998.37
2017-07-27T07:03:47.244Z,998.37
2017-07-27T07:06:02.804Z,998.44
2017-07-27T07:08:26.778Z,998.42
2017-07-27T07:10:50.769Z,998.46
2017-07-27T07:13:14.767Z,998.48
2017-07-27T07:15:38.844Z,998.46
2017-07-27T07:18:02.855Z,998.49
2017-07-27T07:20:26.994Z,998.51
2017-07-27T07:22:50.924Z,998.54
2017-07-27T07:25:06.638Z,998.5
2017-07-27T07:27:22.226Z,998.45
2017-07-27T07:29:46.322Z,998.39
2017-07-27T07:32:10.429Z,998.35
2017-07-27T07:34:34.598Z,998.41
2017-07-27T07:36:58.769Z,998.4
2017-07-27T07:39:14.594Z,998.35
2017-07-27T07:41:30.370Z,998.38
2017-07-27T07:43:54.606Z,998.33
2017-07-27T07:46:18.858Z,998.31
2017-07-27T07:48:43.112Z,998.27
2017-07-27T07:50:58.951Z,998.33
2017-07-27T07:53:24.229Z,998.34
2017-07-27T07:55:48.528Z,998.42
2017-07-27T07:58:12.894Z,998.47
2017-07-27T08:00:37.242Z,998.41
2017-07-27T08:03:01.592Z,998.34
2017-07-27T08:05:25.929Z,998.37
2017-07-27T08:07:50.274Z,998.34
2017-07-27T08:10:06.162Z,998.28
2017-07-27T08:12:30.455Z,998.26
2017-07-27T08:14:54.775Z,998.29
2017-07-27T08:17:19.127Z,998.3
2017-07-27T08:19:43.505Z,998.27
2017-07-27T08:21:59.494Z,998.24
2017-07-27T08:24:15.488Z,998.32
2017-07-27T08:26:39.996Z,998.33
2017-07-27T08:29:04.479Z,998.4
2017-07-27T08:31:28.927Z,998.38
2017-07-27T08:33:44.951Z,998.38
2017-07-27T08:36:00.950Z,998.4
2017-07-27T08:38:25.403Z,998.42
2017-07-27T08:40:49.905Z,998.43
2017-07-27T08:43:15.448Z,998.38
2017-07-27T08:45:31.520Z,998.32
2017-07-27T08:47:47.607Z,998.32
2017-07-27T08:50:12.151Z,998.35
2017-07-27T08:52:28.200Z,998.34
2017-07-27T08:54:52.672Z,998.36
2017-07-27T08:57:09.685Z,998.36
2017-07-27T08:59:34.127Z,998.4
2017-07-27T09:01:58.586Z,998.46
2017-07-27T09:04:22.997Z,998.43
2017-07-27T09:06:47.426Z,998.46
2017-07-27T09:09:11.810Z,998.39
2017-07-27T09:11:27.762Z,998.38
2017-07-27T09:13:43.661Z,998.32
2017-07-27T09:16:09.045Z,998.26
2017-07-27T09:18:33.433Z,998.16
2017-07-27T09:20:57.808Z,998.14
2017-07-27T09:23:22.188Z,998.14
2017-07-27T09:25:46.593Z,998.18
2017-07-27T09:28:02.549Z,998.16
2017-07-27T09:30:27.955Z,998.16
2017-07-27T09:32:52.323Z,998.14
2017-07-27T09:35:16.758Z,998.13
2017-07-27T09:37:32.737Z,998.11
2017-07-27T09:41:33.488Z,998.09
2017-07-27T09:43:57.995Z,998.08
2017-07-27T09:46:22.469Z,998.06
2017-07-27T09:48:46.950Z,998
2017-07-27T09:51:11.439Z,997.93
2017-07-27T09:53:27.492Z,997.92
2017-07-27T09:55:52.026Z,997.98
2017-07-27T09:58:08.094Z,998.03
2017-07-27T10:00:15.694Z,997.96
2017-07-27T10:02:31.797Z,998.03
2017-07-27T10:04:56.368Z,998.04
2017-07-27T10:07:20.961Z,997.89
2017-07-27T10:09:37.101Z,997.9
2017-07-27T10:11:38.618Z,997.79
2017-07-27T10:13:48.651Z,997.81
2017-07-27T10:16:13.264Z,997.91
2017-07-27T10:18:37.821Z,997.85
2017-07-27T10:21:02.433Z,997.77
2017-07-27T10:23:27.043Z,997.92
2017-07-27T10:25:51.677Z,998
2017-07-27T10:28:16.363Z,997.89
2017-07-27T10:30:41.053Z,997.96
2017-07-27T10:33:05.787Z,997.89
2017-07-27T10:35:30.570Z,997.91
2017-07-27T10:37:56.350Z,997.93
2017-07-27T10:40:21.123Z,997.85
2017-07-27T10:42:45.847Z,997.66
2017-07-27T10:45:02.111Z,997.73
2017-07-27T10:47:26.803Z,997.78
2017-07-27T10:49:51.522Z,997.72
2017-07-27T10:52:16.195Z,997.73
2017-07-27T10:54:23.948Z,997.76
2017-07-27T10:56:48.700Z,997.75
2017-07-27T10:59:13.427Z,997.83
2017-07-27T11:01:38.146Z,997.87
2017-07-27T11:04:02.813Z,997.84
2017-07-27T11:06:27.442Z,997.87
2017-07-27T11:08:52.057Z,997.89
2017-07-27T11:11:08.180Z,997.87
2017-07-27T11:13:32.717Z,997.85
2017-07-27T11:15:57.206Z,997.78
2017-07-27T11:18:21.634Z,997.77
2017-07-27T11:20:46.074Z,997.71
2017-07-27T11:23:10.503Z,997.67
2017-07-27T11:25:34.895Z,997.69
2017-07-27T11:27:52.817Z,997.7
2017-07-27T11:29:54.844Z,997.71
2017-07-27T11:32:19.198Z,997.71
2017-07-27T11:34:35.096Z,997.73
2017-07-27T11:36:59.451Z,997.71
2017-07-27T11:39:23.779Z,997.73
2017-07-27T11:41:48.096Z,997.78
2017-07-27T11:44:12.391Z,997.73
2017-07-27T11:46:28.315Z,997.75
2017-07-27T11:48:44.232Z,997.78
2017-07-27T11:51:08.673Z,997.74
2017-07-27T11:53:33.146Z,997.77
2017-07-27T11:55:57.656Z,997.8
2017-07-27T11:58:22.172Z,997.74
2017-07-27T12:00:29.709Z,997.66
2017-07-27T12:02:54.162Z,997.81
2017-07-27T12:05:10.181Z,997.84
2017-07-27T12:07:34.689Z,997.87
2017-07-27T12:09:59.242Z,997.83
2017-07-27T12:12:25.833Z,997.82
2017-07-27T12:14:50.406Z,997.75
2017-07-27T12:17:14.997Z,997.73
2017-07-27T12:19:25.086Z,997.63
2017-07-27T12:21:49.723Z,997.59
2017-07-27T12:24:14.374Z,997.63
2017-07-27T12:26:22.092Z,997.63
2017-07-27T12:28:46.749Z,997.63
2017-07-27T12:31:11.396Z,997.56
2017-07-27T12:33:27.616Z,997.48
2017-07-27T12:35:43.823Z,997.48
2017-07-27T12:38:08.467Z,997.48
2017-07-27T12:40:33.091Z,997.37
2017-07-27T12:42:57.734Z,997.4
2017-07-27T12:45:13.892Z,997.36
2017-07-27T12:47:30.093Z,997.35
2017-07-27T12:49:54.798Z,997.35
2017-07-27T12:52:19.473Z,997.31
2017-07-27T12:54:20.990Z,997.26
2017-07-27T12:56:45.692Z,997.21
2017-07-27T12:58:53.410Z,997.24
2017-07-27T13:01:18.063Z,997.19
2017-07-27T13:03:34.208Z,997.24
2017-07-27T13:05:58.865Z,997.2
2017-07-27T13:08:23.521Z,997.11
2017-07-27T13:10:39.712Z,997.08
2017-07-27T13:12:55.903Z,997.2
2017-07-27T13:15:12.089Z,997.19
2017-07-27T13:17:36.750Z,997.22
2017-07-27T13:20:01.375Z,997.22
2017-07-27T13:22:26.012Z,997.27
2017-07-27T13:24:50.686Z,997.24
2017-07-27T13:27:07.862Z,997.24
2017-07-27T13:29:15.538Z,997.17
2017-07-27T13:31:41.154Z,997.16
2017-07-27T13:33:59.241Z,997.1
2017-07-27T13:36:23.833Z,997.11
2017-07-27T13:38:48.422Z,997.12
2017-07-27T13:41:13.060Z,997.09
2017-07-27T13:43:29.157Z,997.08
2017-07-27T13:45:46.339Z,996.98
2017-07-27T13:48:10.985Z,996.99
2017-07-27T13:50:35.661Z,996.94
2017-07-27T13:53:00.316Z,996.85
2017-07-27T13:55:24.947Z,996.74
2017-07-27T13:57:49.584Z,996.8
2017-07-27T14:00:14.225Z,996.88
2017-07-27T14:02:38.888Z,996.83
2017-07-27T14:05:03.501Z,996.88
2017-07-27T14:07:19.679Z,996.91
2017-07-27T14:09:21.217Z,996.99
2017-07-27T14:11:45.887Z,997.05
2017-07-27T14:14:02.012Z,997.03
2017-07-27T14:16:26.608Z,996.92
2017-07-27T14:18:34.221Z,996.81
2017-07-27T14:20:50.312Z,996.77
2017-07-27T14:23:15.909Z,996.83
2017-07-27T14:25:32.024Z,996.91
2017-07-27T14:27:56.636Z,996.95
2017-07-27T14:30:21.203Z,996.97
2017-07-27T14:32:46.796Z,997.01
2017-07-27T14:35:11.418Z,996.9
2017-07-27T14:37:36.105Z,996.93
2017-07-27T14:40:02.750Z,996.93
2017-07-27T14:42:27.384Z,996.96
2017-07-27T14:44:53.034Z,997.05
2017-07-27T14:47:17.694Z,996.99
2017-07-27T14:49:42.328Z,997.04
2017-07-27T14:52:13.496Z,997.01
2017-07-27T14:54:29.665Z,996.97
2017-07-27T14:56:54.308Z,996.91
2017-07-27T14:59:10.446Z,996.96
2017-07-27T15:01:26.581Z,996.98
2017-07-27T15:05:26.989Z,996.95
2017-07-27T15:07:51.571Z,996.9
2017-07-27T15:10:07.663Z,996.97
2017-07-27T15:12:17.732Z,997
2017-07-27T15:14:19.204Z,996.91
2017-07-27T15:16:43.740Z,996.81
2017-07-27T15:18:59.805Z,996.79
2017-07-27T15:21:15.837Z,996.76
2017-07-27T15:23:40.392Z,996.65
2017-07-27T15:26:04.916Z,996.64
2017-07-27T15:28:29.423Z,996.65
2017-07-27T15:30:53.907Z,996.68
2017-07-27T15:33:10.011Z,996.62
2017-07-27T15:35:14.701Z,996.59
2017-07-27T15:37:30.923Z,996.58
2017-07-27T15:39:46.975Z,996.62
2017-07-27T15:42:11.504Z,996.58
2017-07-27T15:44:36.039Z,996.61
2017-07-27T15:46:43.676Z,996.62
2017-07-27T15:48:59.726Z,996.61
2017-07-27T15:51:15.798Z,996.5
2017-07-27T15:53:40.436Z,996.43
2017-07-27T15:56:04.948Z,996.36
2017-07-27T15:58:31.455Z,996.32
2017-07-27T16:00:55.965Z,996.23
2017-07-27T16:03:20.499Z,996.18
2017-07-27T16:07:03.926Z,996.14
2017-07-27T16:09:19.956Z,996.16
2017-07-27T16:11:44.431Z,996.11
2017-07-27T16:14:08.960Z,996.14
2017-07-27T16:16:19.019Z,996.09
2017-07-27T16:18:43.549Z,996.05
2017-07-27T16:22:43.938Z,996.05
2017-07-27T16:25:08.469Z,996.03
2017-07-27T16:27:32.943Z,996.05
2017-07-27T16:29:57.440Z,996.03
2017-07-27T16:32:23.936Z,995.99
2017-07-27T16:34:48.419Z,996.01
2017-07-27T16:37:13.912Z,995.98
2017-07-27T16:39:39.339Z,996.02
2017-07-27T16:42:03.189Z,995.94
2017-07-27T16:44:28.642Z,995.8
2017-07-27T16:46:54.092Z,995.75
2017-07-27T16:49:19.535Z,995.78
2017-07-27T16:51:35.476Z,995.8
2017-07-27T16:54:00.074Z,995.84
2017-07-27T16:56:24.739Z,995.84
2017-07-27T17:00:49.696Z,995.84
2017-07-27T17:03:05.609Z,995.88
2017-07-27T17:05:30.040Z,995.89
2017-07-27T17:07:54.475Z,995.86
2017-07-27T17:10:18.897Z,995.87
2017-07-27T17:12:57.950Z,995.91
2017-07-27T17:15:22.341Z,995.97
2017-07-27T17:17:46.709Z,995.97
2017-07-27T17:20:11.077Z,995.88
2017-07-27T17:22:35.538Z,995.86
2017-07-27T17:24:59.916Z,995.78
2017-07-27T17:27:24.325Z,995.82
2017-07-27T17:29:48.808Z,995.9
2017-07-27T17:32:13.148Z,995.93
2017-07-27T17:34:37.528Z,995.98
2017-07-27T17:37:01.849Z,996.05
2017-07-27T17:39:26.251Z,996.09
2017-07-27T17:41:50.638Z,996.19
2017-07-27T17:44:15.008Z,996.2
2017-07-27T17:46:39.304Z,996.26
2017-07-27T17:49:03.723Z,996.36
2017-07-27T17:51:28.030Z,996.43
2017-07-27T17:53:52.269Z,996.34
2017-07-27T17:56:16.646Z,996.38
2017-07-27T17:58:40.978Z,996.33
2017-07-27T18:01:05.208Z,996.3
2017-07-27T18:03:29.624Z,996.26
2017-07-27T18:05:53.775Z,996.25
2017-07-27T18:08:18.026Z,996.2
2017-07-27T18:10:42.214Z,996.18
2017-07-27T18:13:06.458Z,996.2
2017-07-27T18:15:30.839Z,996.15
2017-07-27T18:17:55.558Z,996.15
2017-07-27T18:20:19.789Z,996.03
2017-07-27T18:22:44.134Z,995.97
2017-07-27T18:25:08.768Z,996.01
2017-07-27T18:27:32.954Z,996.04
2017-07-27T18:29:57.266Z,996.08
2017-07-27T18:32:21.672Z,996.06
2017-07-27T18:34:45.707Z,996
2017-07-27T18:38:45.821Z,995.91
2017-07-27T18:41:10.093Z,995.93
2017-07-27T18:43:34.354Z,995.94
2017-07-27T18:45:58.608Z,995.91
2017-07-27T18:48:22.908Z,995.86
2017-07-27T18:50:47.152Z,995.89
2017-07-27T18:53:11.414Z,995.95
2017-07-27T18:55:35.672Z,995.93
2017-07-27T18:57:59.988Z,995.96
2017-07-27T18:59:53.465Z,995.81
2017-07-27T19:02:17.686Z,996.03
2017-07-27T19:04:42.029Z,996.1
2017-07-27T19:07:06.244Z,996.15
2017-07-27T19:09:30.611Z,996.22
2017-07-27T19:11:54.889Z,996.29
2017-07-27T19:14:19.419Z,996.31
2017-07-27T19:16:43.659Z,996.29
2017-07-27T19:19:00.421Z,996.38
2017-07-27T19:21:24.724Z,996.41
2017-07-27T19:23:50.920Z,996.44
2017-07-27T19:26:15.136Z,996.43
2017-07-27T19:28:16.673Z,996.43
2017-07-27T19:30:40.981Z,996.45
2017-07-27T19:34:41.007Z,996.45
2017-07-27T19:37:05.186Z,996.5
2017-07-27T19:39:15.773Z,996.56
2017-07-27T19:41:39.979Z,996.6
2017-07-27T19:44:04.189Z,996.56
2017-07-27T19:46:28.437Z,996.64
2017-07-27T19:48:52.633Z,996.69
2017-07-27T19:51:16.790Z,996.73
2017-07-27T19:53:18.208Z,996.8
2017-07-27T19:55:33.924Z,996.79
2017-07-27T19:57:58.128Z,996.77
2017-07-27T20:00:30.087Z,996.82
2017-07-27T20:02:40.485Z,996.86
2017-07-27T20:04:51.122Z,996.88
2017-07-27T20:07:15.332Z,996.95
2017-07-27T20:09:39.465Z,996.95
2017-07-27T20:12:03.654Z,996.95
2017-07-27T20:14:19.437Z,996.86
2017-07-27T20:16:35.107Z,996.89
2017-07-27T20:18:50.842Z,996.89
2017-07-27T20:21:15.097Z,996.87
2017-07-27T20:23:39.328Z,996.79
2017-07-27T20:26:03.485Z,996.94
2017-07-27T20:28:28.729Z,996.84
2017-07-27T20:30:53.016Z,996.78
2017-07-27T20:33:03.497Z,996.84
2017-07-27T20:35:27.637Z,996.82
2017-07-27T20:37:51.767Z,996.69
2017-07-27T20:40:25.904Z,996.39
2017-07-27T20:43:00.451Z,996.67
2017-07-27T20:47:09.581Z,996.83
2017-07-27T20:49:33.644Z,996.93
2017-07-27T20:51:57.763Z,997.01
2017-07-27T20:54:21.903Z,997.12
2017-07-27T20:56:37.622Z,997.11
2017-07-27T20:59:01.842Z,996.96
2017-07-27T21:01:26.032Z,996.89
2017-07-27T21:03:41.690Z,996.94
2017-07-27T21:06:14.710Z,996.94
2017-07-27T21:08:38.823Z,996.89
2017-07-27T21:11:02.940Z,996.9
2017-07-27T21:13:35.776Z,996.94
2017-07-27T21:15:59.882Z,996.99
2017-07-27T21:18:15.540Z,997.01
2017-07-27T21:20:39.645Z,997.08
2017-07-27T21:23:10.759Z,997.12
2017-07-27T21:25:36.883Z,997.1
2017-07-27T21:27:52.536Z,997.12
2017-07-27T21:30:17.676Z,997.16
2017-07-27T21:32:43.811Z,997.15
2017-07-27T21:35:07.913Z,997.13
2017-07-27T21:37:32.005Z,997.09
2017-07-27T21:39:57.177Z,997.12
2017-07-27T21:42:12.914Z,997.13
2017-07-27T21:44:29.629Z,997.13
2017-07-27T21:47:02.665Z,997.13
2017-07-27T21:49:20.406Z,997.19
2017-07-27T21:51:44.464Z,997.22
2017-07-27T21:54:06.770Z,997.29
2017-07-27T21:56:30.904Z,997.33
2017-07-27T21:58:55.068Z,997.33
2017-07-27T22:01:25.722Z,997.3
2017-07-27T22:03:49.760Z,997.3
2017-07-27T22:06:13.882Z,997.34
2017-07-27T22:08:40.010Z,997.26
2017-07-27T22:11:04.195Z,997.24
2017-07-27T22:13:28.233Z,997.24
2017-07-27T22:15:43.869Z,997.26
2017-07-27T22:18:08.980Z,997.24
2017-07-27T22:20:34.165Z,997.32
2017-07-27T22:22:49.854Z,997.34
2017-07-27T22:25:05.439Z,997.33
2017-07-27T22:27:30.545Z,997.35
2017-07-27T22:29:54.593Z,997.32
2017-07-27T22:32:18.713Z,997.36
2017-07-27T22:34:34.287Z,997.37
2017-07-27T22:37:05.235Z,997.42
2017-07-27T22:39:20.849Z,997.46
2017-07-27T22:41:52.702Z,997.53
2017-07-27T22:43:59.863Z,997.6
2017-07-27T22:46:23.939Z,997.64
2017-07-27T22:48:48.002Z,997.64
2017-07-27T22:51:05.665Z,997.63
2017-07-27T22:53:29.751Z,997.66
2017-07-27T22:55:54.849Z,997.75
2017-07-27T22:58:19.956Z,997.78
2017-07-27T23:00:45.065Z,997.77
2017-07-27T23:03:10.171Z,997.79
2017-07-27T23:05:34.226Z,997.84
2017-07-27T23:07:59.361Z,997.83
2017-07-27T23:10:23.440Z,997.85
2017-07-27T23:14:23.163Z,997.89
2017-07-27T23:16:47.218Z,997.95
2017-07-27T23:19:02.850Z,998.02
2017-07-27T23:21:26.890Z,998.01
2017-07-27T23:23:36.795Z,998
2017-07-27T23:26:00.846Z,998.07
2017-07-27T23:28:24.857Z,998.06
2017-07-27T23:30:40.406Z,998.08
2017-07-27T23:33:04.392Z,998.12
2017-07-27T23:35:19.949Z,998.08
2017-07-27T23:37:43.922Z,998.1
2017-07-27T23:40:07.900Z,998.1
2017-07-27T23:44:07.592Z,998.11
2017-07-27T23:46:14.742Z,998.09
2017-07-27T23:48:38.734Z,998.12
2017-07-27T23:51:02.727Z,998.11
2017-07-27T23:53:26.653Z,998.06
2017-07-27T23:55:42.211Z,998.09
2017-07-27T23:57:57.775Z,998.17
